sensor_id;sensor_type;location;lat;lon;timestamp;pressure;altitude;pressure_sealevel;temperature;humidity
23172;BME280;11754;42.664;23.594;2023-04-25T00:00:21;94713.53;;;11.31;88.02
23172;BME280;11754;42.664;23.594;2023-04-25T00:02:47;94724.47;;;11.28;88.39
23172;BME280;11754;42.664;23.594;2023-04-25T00:05:12;94720.13;;;11.20;88.91
23172;BME280;11754;42.664;23.594;2023-04-25T00:07:40;94714.03;;;11.20;89.50
23172;BME280;11754;42.664;23.594;2023-04-25T00:10:08;94705.91;;;11.21;90.21
23172;BME280;11754;42.664;23.594;2023-04-25T00:12:34;94693.28;;;11.17;90.80
23172;BME280;11754;42.664;23.594;2023-04-25T00:14:59;94697.00;;;11.22;90.97
23172;BME280;11754;42.664;23.594;2023-04-25T00:17:25;94696.00;;;11.23;91.29
23172;BME280;11754;42.664;23.594;2023-04-25T00:19:50;94698.69;;;11.30;91.45
23172;BME280;11754;42.664;23.594;2023-04-25T00:32:20;94673.34;;;11.36;91.68
23172;BME280;11754;42.664;23.594;2023-04-25T00:34:46;94669.47;;;11.31;91.58
23172;BME280;11754;42.664;23.594;2023-04-25T00:37:11;94661.44;;;11.40;91.80
23172;BME280;11754;42.664;23.594;2023-04-25T00:39:36;94655.50;;;11.38;92.05
23172;BME280;11754;42.664;23.594;2023-04-25T00:42:02;94654.84;;;11.29;92.37
23172;BME280;11754;42.664;23.594;2023-04-25T00:44:29;94657.94;;;11.39;92.06
23172;BME280;11754;42.664;23.594;2023-04-25T00:46:55;94646.78;;;11.37;91.98
23172;BME280;11754;42.664;23.594;2023-04-25T00:49:20;94645.16;;;11.43;91.77
23172;BME280;11754;42.664;23.594;2023-04-25T01:05:44;94598.59;;;11.63;89.75
23172;BME280;11754;42.664;23.594;2023-04-25T01:08:10;94607.16;;;11.65;89.35
23172;BME280;11754;42.664;23.594;2023-04-25T01:10:36;94605.13;;;11.67;89.58
23172;BME280;11754;42.664;23.594;2023-04-25T01:13:01;94595.31;;;11.54;89.45
23172;BME280;11754;42.664;23.594;2023-04-25T01:15:27;94592.41;;;11.49;89.69
23172;BME280;11754;42.664;23.594;2023-04-25T02:20:07;94557.00;;;10.59;92.96
23172;BME280;11754;42.664;23.594;2023-04-25T02:22:33;94552.94;;;10.57;93.07
23172;BME280;11754;42.664;23.594;2023-04-25T02:24:59;94562.47;;;10.58;93.19
23172;BME280;11754;42.664;23.594;2023-04-25T02:27:24;94552.72;;;10.58;93.13
23172;BME280;11754;42.664;23.594;2023-04-25T02:29:49;94556.19;;;10.59;92.81
23172;BME280;11754;42.664;23.594;2023-04-25T02:32:15;94541.38;;;10.58;92.46
23172;BME280;11754;42.664;23.594;2023-04-25T02:44:45;94529.41;;;10.19;93.08
23172;BME280;11754;42.664;23.594;2023-04-25T02:47:10;94523.50;;;10.17;93.41
23172;BME280;11754;42.664;23.594;2023-04-25T02:49:35;94514.97;;;10.15;93.37
23172;BME280;11754;42.664;23.594;2023-04-25T02:52:01;94525.31;;;10.17;93.13
23172;BME280;11754;42.664;23.594;2023-04-25T02:54:26;94521.84;;;10.16;93.43
23172;BME280;11754;42.664;23.594;2023-04-25T02:56:51;94525.50;;;10.15;92.97
23172;BME280;11754;42.664;23.594;2023-04-25T02:59:17;94517.97;;;10.12;92.96
23172;BME280;11754;42.664;23.594;2023-04-25T03:01:42;94524.69;;;10.15;92.42
23172;BME280;11754;42.664;23.594;2023-04-25T03:04:07;94523.50;;;10.17;92.38
23172;BME280;11754;42.664;23.594;2023-04-25T03:06:33;94532.03;;;10.19;92.18
23172;BME280;11754;42.664;23.594;2023-04-25T03:08:58;94532.03;;;10.19;91.88
23172;BME280;11754;42.664;23.594;2023-04-25T03:11:25;94537.66;;;10.16;91.84
23172;BME280;11754;42.664;23.594;2023-04-25T03:13:51;94538.22;;;10.11;91.49
23172;BME280;11754;42.664;23.594;2023-04-25T03:16:16;94544.97;;;10.14;91.50
23172;BME280;11754;42.664;23.594;2023-04-25T03:18:41;94532.88;;;10.05;91.23
23172;BME280;11754;42.664;23.594;2023-04-25T03:21:07;94529.81;;;10.01;91.69
23172;BME280;11754;42.664;23.594;2023-04-25T03:23:32;94522.03;;;9.93;91.62
23172;BME280;11754;42.664;23.594;2023-04-25T03:25:58;94530.09;;;9.92;91.12
23172;BME280;11754;42.664;23.594;2023-04-25T03:28:26;94530.84;;;9.85;91.52
23172;BME280;11754;42.664;23.594;2023-04-25T03:30:53;94529.22;;;9.84;91.55
23172;BME280;11754;42.664;23.594;2023-04-25T03:33:19;94535.84;;;9.80;91.69
23172;BME280;11754;42.664;23.594;2023-04-25T03:35:44;94540.84;;;9.75;91.83
23172;BME280;11754;42.664;23.594;2023-04-25T03:38:10;94541.31;;;9.79;91.52
23172;BME280;11754;42.664;23.594;2023-04-25T03:40:35;94537.84;;;9.78;92.13
23172;BME280;11754;42.664;23.594;2023-04-25T03:43:00;94539.47;;;9.79;91.78
23172;BME280;11754;42.664;23.594;2023-04-25T03:45:26;94540.50;;;9.78;91.07
23172;BME280;11754;42.664;23.594;2023-04-25T03:47:51;94538.75;;;9.85;90.88
23172;BME280;11754;42.664;23.594;2023-04-25T03:50:16;94537.00;;;9.93;91.04
23172;BME280;11754;42.664;23.594;2023-04-25T03:56:04;94529.88;;;10.08;90.31
23172;BME280;11754;42.664;23.594;2023-04-25T03:58:29;94535.41;;;10.13;89.80
23172;BME280;11754;42.664;23.594;2023-04-25T04:00:54;94542.03;;;10.09;88.97
23172;BME280;11754;42.664;23.594;2023-04-25T04:03:20;94546.50;;;10.08;88.79
23172;BME280;11754;42.664;23.594;2023-04-25T04:05:46;94536.50;;;10.19;88.69
23172;BME280;11754;42.664;23.594;2023-04-25T04:08:11;94532.13;;;10.26;89.04
23172;BME280;11754;42.664;23.594;2023-04-25T04:10:37;94539.84;;;10.49;88.62
23172;BME280;11754;42.664;23.594;2023-04-25T04:13:02;94546.78;;;10.71;88.09
23172;BME280;11754;42.664;23.594;2023-04-25T04:15:27;94539.81;;;10.92;87.58
23172;BME280;11754;42.664;23.594;2023-04-25T04:17:53;94530.78;;;11.01;86.04
23172;BME280;11754;42.664;23.594;2023-04-25T04:20:19;94536.91;;;11.08;85.43
23172;BME280;11754;42.664;23.594;2023-04-25T04:22:45;94536.00;;;11.22;85.23
23172;BME280;11754;42.664;23.594;2023-04-25T04:25:10;94533.50;;;11.49;85.04
23172;BME280;11754;42.664;23.594;2023-04-25T04:27:37;94528.53;;;11.67;82.89
23172;BME280;11754;42.664;23.594;2023-04-25T04:30:03;94539.41;;;11.86;80.11
23172;BME280;11754;42.664;23.594;2023-04-25T04:32:28;94541.81;;;11.81;79.88
23172;BME280;11754;42.664;23.594;2023-04-25T04:34:55;94543.53;;;11.95;81.02
23172;BME280;11754;42.664;23.594;2023-04-25T04:37:21;94538.69;;;12.05;81.23
23172;BME280;11754;42.664;23.594;2023-04-25T04:39:47;94541.59;;;12.23;81.06
23172;BME280;11754;42.664;23.594;2023-04-25T04:42:12;94547.31;;;12.40;80.35
23172;BME280;11754;42.664;23.594;2023-04-25T04:44:38;94539.03;;;12.57;80.01
23172;BME280;11754;42.664;23.594;2023-04-25T04:47:04;94542.09;;;12.73;79.78
23172;BME280;11754;42.664;23.594;2023-04-25T04:49:31;94541.47;;;12.71;79.40
23172;BME280;11754;42.664;23.594;2023-04-25T04:51:57;94540.69;;;12.78;79.42
23172;BME280;11754;42.664;23.594;2023-04-25T04:54:22;94540.47;;;12.86;80.04
23172;BME280;11754;42.664;23.594;2023-04-25T04:56:47;94543.72;;;12.94;79.49
23172;BME280;11754;42.664;23.594;2023-04-25T04:59:18;94530.31;;;12.96;79.51
23172;BME280;11754;42.664;23.594;2023-04-25T05:01:43;94542.09;;;13.00;79.37
23172;BME280;11754;42.664;23.594;2023-04-25T05:04:09;94528.06;;;12.93;79.79
23172;BME280;11754;42.664;23.594;2023-04-25T05:06:34;94522.16;;;12.91;79.32
23172;BME280;11754;42.664;23.594;2023-04-25T05:09:00;94539.28;;;12.95;78.68
23172;BME280;11754;42.664;23.594;2023-04-25T05:11:25;94540.09;;;13.02;78.50
23172;BME280;11754;42.664;23.594;2023-04-25T05:13:51;94547.59;;;13.05;78.52
23172;BME280;11754;42.664;23.594;2023-04-25T05:16:17;94542.09;;;13.00;78.71
23172;BME280;11754;42.664;23.594;2023-04-25T05:18:43;94549.03;;;12.94;79.56
23172;BME280;11754;42.664;23.594;2023-04-25T05:21:08;94549.22;;;12.93;79.54
23172;BME280;11754;42.664;23.594;2023-04-25T05:23:34;94549.63;;;12.90;79.28
23172;BME280;11754;42.664;23.594;2023-04-25T05:25:59;94545.38;;;12.89;79.42
23172;BME280;11754;42.664;23.594;2023-04-25T05:28:24;94548.41;;;12.86;79.16
23172;BME280;11754;42.664;23.594;2023-04-25T05:30:50;94552.88;;;12.79;79.37
23172;BME280;11754;42.664;23.594;2023-04-25T05:33:15;94550.25;;;12.79;79.15
23172;BME280;11754;42.664;23.594;2023-04-25T05:35:41;94538.03;;;12.71;78.16
23172;BME280;11754;42.664;23.594;2023-04-25T05:38:07;94547.16;;;12.68;78.87
23172;BME280;11754;42.664;23.594;2023-04-25T05:40:32;94546.19;;;12.69;78.95
23172;BME280;11754;42.664;23.594;2023-04-25T05:42:58;94551.44;;;12.76;79.36
23172;BME280;11754;42.664;23.594;2023-04-25T05:45:23;94558.38;;;12.77;79.17
23172;BME280;11754;42.664;23.594;2023-04-25T05:47:48;94556.75;;;12.83;79.04
23172;BME280;11754;42.664;23.594;2023-04-25T05:50:14;94562.88;;;12.90;79.47
23172;BME280;11754;42.664;23.594;2023-04-25T05:52:39;94572.25;;;12.92;79.19
23172;BME280;11754;42.664;23.594;2023-04-25T05:55:05;94566.97;;;12.99;79.07
23172;BME280;11754;42.664;23.594;2023-04-25T05:57:30;94558.00;;;13.07;78.76
23172;BME280;11754;42.664;23.594;2023-04-25T05:59:56;94553.91;;;13.04;78.67
23172;BME280;11754;42.664;23.594;2023-04-25T06:02:21;94560.06;;;13.25;78.70
23172;BME280;11754;42.664;23.594;2023-04-25T06:04:50;94567.19;;;13.24;78.09
23172;BME280;11754;42.664;23.594;2023-04-25T06:07:16;94552.91;;;13.18;78.56
23172;BME280;11754;42.664;23.594;2023-04-25T06:09:43;94557.19;;;13.06;79.48
23172;BME280;11754;42.664;23.594;2023-04-25T06:12:08;94552.09;;;13.11;79.28
23172;BME280;11754;42.664;23.594;2023-04-25T06:14:34;94551.88;;;13.19;79.19
23172;BME280;11754;42.664;23.594;2023-04-25T06:16:59;94558.81;;;13.34;79.46
23172;BME280;11754;42.664;23.594;2023-04-25T06:19:35;94567.78;;;13.33;78.61
23172;BME280;11754;42.664;23.594;2023-04-25T06:22:01;94578.56;;;13.38;78.92
23172;BME280;11754;42.664;23.594;2023-04-25T06:24:26;94574.88;;;13.52;79.02
23172;BME280;11754;42.664;23.594;2023-04-25T06:26:51;94563.63;;;13.77;78.33
23172;BME280;11754;42.664;23.594;2023-04-25T06:29:17;94554.38;;;13.99;77.30
23172;BME280;11754;42.664;23.594;2023-04-25T06:31:43;94564.94;;;14.12;75.89
23172;BME280;11754;42.664;23.594;2023-04-25T06:37:29;94567.03;;;14.49;74.59
23172;BME280;11754;42.664;23.594;2023-04-25T06:39:55;94559.06;;;14.87;74.37
23172;BME280;11754;42.664;23.594;2023-04-25T06:42:20;94560.66;;;14.95;72.64
23172;BME280;11754;42.664;23.594;2023-04-25T06:44:46;94560.56;;;15.08;72.88
23172;BME280;11754;42.664;23.594;2023-04-25T06:47:11;94562.28;;;15.21;71.96
23172;BME280;11754;42.664;23.594;2023-04-25T06:49:36;94555.81;;;15.35;71.40
23172;BME280;11754;42.664;23.594;2023-04-25T06:52:02;94556.41;;;15.62;70.92
23172;BME280;11754;42.664;23.594;2023-04-25T06:54:28;94565.53;;;15.73;69.89
23172;BME280;11754;42.664;23.594;2023-04-25T06:56:55;94564.50;;;15.74;69.69
23172;BME280;11754;42.664;23.594;2023-04-25T06:59:22;94566.53;;;15.72;69.76
23172;BME280;11754;42.664;23.594;2023-04-25T07:01:48;94571.16;;;15.58;69.77
23172;BME280;11754;42.664;23.594;2023-04-25T07:04:13;94564.06;;;15.27;69.94
23172;BME280;11754;42.664;23.594;2023-04-25T07:06:39;94575.56;;;15.21;71.17
23172;BME280;11754;42.664;23.594;2023-04-25T07:09:11;94565.22;;;15.37;71.60
23172;BME280;11754;42.664;23.594;2023-04-25T07:11:36;94564.63;;;15.54;71.40
23172;BME280;11754;42.664;23.594;2023-04-25T07:14:02;94558.00;;;15.70;71.13
23172;BME280;11754;42.664;23.594;2023-04-25T07:16:27;94555.34;;;15.88;70.53
23172;BME280;11754;42.664;23.594;2023-04-25T07:18:53;94559.69;;;16.01;69.97
23172;BME280;11754;42.664;23.594;2023-04-25T07:21:18;94558.56;;;16.45;69.31
23172;BME280;11754;42.664;23.594;2023-04-25T07:23:44;94555.63;;;16.95;67.08
23172;BME280;11754;42.664;23.594;2023-04-25T07:26:09;94557.31;;;17.43;64.09
23172;BME280;11754;42.664;23.594;2023-04-25T07:31:56;94551.75;;;18.84;59.64
23172;BME280;11754;42.664;23.594;2023-04-25T07:34:21;94555.34;;;19.24;58.70
23172;BME280;11754;42.664;23.594;2023-04-25T07:36:47;94539.88;;;19.76;56.83
23172;BME280;11754;42.664;23.594;2023-04-25T07:39:12;94539.63;;;20.38;54.74
23172;BME280;11754;42.664;23.594;2023-04-25T07:41:38;94546.47;;;20.51;52.21
23172;BME280;11754;42.664;23.594;2023-04-25T07:44:04;94545.84;;;20.66;51.54
23172;BME280;11754;42.664;23.594;2023-04-25T07:46:29;94539.16;;;20.69;50.56
23172;BME280;11754;42.664;23.594;2023-04-25T07:48:54;94538.09;;;20.48;49.95
23172;BME280;11754;42.664;23.594;2023-04-25T07:51:20;94541.28;;;20.45;48.95
23172;BME280;11754;42.664;23.594;2023-04-25T07:53:47;94548.34;;;20.51;48.78
23172;BME280;11754;42.664;23.594;2023-04-25T07:56:13;94545.44;;;20.52;48.08
23172;BME280;11754;42.664;23.594;2023-04-25T07:58:38;94543.72;;;20.68;48.35
23172;BME280;11754;42.664;23.594;2023-04-25T08:01:03;94538.56;;;21.16;47.36
23172;BME280;11754;42.664;23.594;2023-04-25T08:03:29;94537.81;;;21.90;46.30
23172;BME280;11754;42.664;23.594;2023-04-25T08:05:54;94541.13;;;22.12;44.51
23172;BME280;11754;42.664;23.594;2023-04-25T08:08:20;94540.16;;;22.23;42.76
23172;BME280;11754;42.664;23.594;2023-04-25T08:10:46;94534.69;;;22.08;43.13
23172;BME280;11754;42.664;23.594;2023-04-25T08:13:13;94536.75;;;21.96;42.94
23172;BME280;11754;42.664;23.594;2023-04-25T08:15:38;94542.34;;;21.20;44.03
23172;BME280;11754;42.664;23.594;2023-04-25T08:18:03;94541.19;;;21.38;44.23
23172;BME280;11754;42.664;23.594;2023-04-25T08:20:29;94537.50;;;21.49;45.52
23172;BME280;11754;42.664;23.594;2023-04-25T08:22:54;94535.34;;;22.36;44.58
23172;BME280;11754;42.664;23.594;2023-04-25T08:25:20;94538.28;;;23.17;43.13
23172;BME280;11754;42.664;23.594;2023-04-25T08:27:45;94528.91;;;23.71;41.57
23172;BME280;11754;42.664;23.594;2023-04-25T08:30:11;94526.13;;;24.02;40.48
23172;BME280;11754;42.664;23.594;2023-04-25T08:32:36;94525.38;;;23.76;40.44
23172;BME280;11754;42.664;23.594;2023-04-25T08:35:04;94516.75;;;23.79;40.19
23172;BME280;11754;42.664;23.594;2023-04-25T08:37:29;94522.16;;;23.73;39.09
23172;BME280;11754;42.664;23.594;2023-04-25T08:39:54;94518.09;;;23.50;38.88
23172;BME280;11754;42.664;23.594;2023-04-25T08:42:21;94525.13;;;23.72;38.66
23172;BME280;11754;42.664;23.594;2023-04-25T08:44:48;94518.38;;;23.64;38.79
23172;BME280;11754;42.664;23.594;2023-04-25T08:47:14;94516.22;;;23.56;39.23
23172;BME280;11754;42.664;23.594;2023-04-25T08:49:45;94523.78;;;23.23;39.04
23172;BME280;11754;42.664;23.594;2023-04-25T08:52:12;94518.66;;;23.42;39.46
23172;BME280;11754;42.664;23.594;2023-04-25T08:54:42;94522.66;;;23.91;38.15
23172;BME280;11754;42.664;23.594;2023-04-25T08:57:09;94517.69;;;24.39;37.12
23172;BME280;11754;42.664;23.594;2023-04-25T08:59:35;94514.28;;;24.78;36.03
23172;BME280;11754;42.664;23.594;2023-04-25T09:02:02;94513.78;;;25.49;35.26
23172;BME280;11754;42.664;23.594;2023-04-25T09:04:30;94505.13;;;25.52;36.63
23172;BME280;11754;42.664;23.594;2023-04-25T09:06:56;94509.69;;;25.23;37.56
23172;BME280;11754;42.664;23.594;2023-04-25T09:09:23;94510.66;;;25.37;36.56
23172;BME280;11754;42.664;23.594;2023-04-25T09:11:48;94509.22;;;25.50;34.86
23172;BME280;11754;42.664;23.594;2023-04-25T09:19:29;94550.13;;;23.57;38.91
23172;BME280;11754;42.664;23.594;2023-04-25T09:22:00;94562.13;;;22.15;44.00
23172;BME280;11754;42.664;23.594;2023-04-25T09:24:42;94522.22;;;21.17;46.41
23172;BME280;11754;42.664;23.594;2023-04-25T09:27:11;94536.47;;;20.63;45.79
23172;BME280;11754;42.664;23.594;2023-04-25T09:29:38;94520.31;;;20.36;46.34
23172;BME280;11754;42.664;23.594;2023-04-25T09:32:16;94522.53;;;20.45;47.35
23172;BME280;11754;42.664;23.594;2023-04-25T09:34:43;94515.94;;;20.74;47.47
23172;BME280;11754;42.664;23.594;2023-04-25T09:37:10;94520.59;;;21.86;45.84
23172;BME280;11754;42.664;23.594;2023-04-25T09:39:37;94501.72;;;23.06;43.07
23172;BME280;11754;42.664;23.594;2023-04-25T09:42:03;94498.16;;;24.67;40.24
23172;BME280;11754;42.664;23.594;2023-04-25T09:44:29;94490.59;;;27.11;36.19
23172;BME280;11754;42.664;23.594;2023-04-25T09:46:54;94491.47;;;27.91;33.21
23172;BME280;11754;42.664;23.594;2023-04-25T09:49:20;94490.56;;;27.16;33.44
23172;BME280;11754;42.664;23.594;2023-04-25T09:54:22;94479.13;;;24.93;34.67
23172;BME280;11754;42.664;23.594;2023-04-25T09:56:48;94481.59;;;24.84;35.86
23172;BME280;11754;42.664;23.594;2023-04-25T09:59:16;94490.97;;;24.97;34.81
23172;BME280;11754;42.664;23.594;2023-04-25T10:01:44;94483.19;;;25.93;34.09
23172;BME280;11754;42.664;23.594;2023-04-25T10:04:10;94472.91;;;26.62;33.58
23172;BME280;11754;42.664;23.594;2023-04-25T10:06:37;94480.50;;;26.79;32.68
23172;BME280;11754;42.664;23.594;2023-04-25T10:09:03;94479.03;;;26.68;31.86
23172;BME280;11754;42.664;23.594;2023-04-25T10:11:30;94477.41;;;27.75;30.93
23172;BME280;11754;42.664;23.594;2023-04-25T10:13:57;94480.19;;;29.75;28.28
23172;BME280;11754;42.664;23.594;2023-04-25T10:16:24;94473.03;;;29.12;28.96
23172;BME280;11754;42.664;23.594;2023-04-25T10:18:49;94473.94;;;27.88;30.40
23172;BME280;11754;42.664;23.594;2023-04-25T10:21:15;94473.78;;;26.95;30.59
23172;BME280;11754;42.664;23.594;2023-04-25T10:23:41;94475.63;;;26.38;31.73
23172;BME280;11754;42.664;23.594;2023-04-25T10:26:08;94468.03;;;25.92;32.77
23172;BME280;11754;42.664;23.594;2023-04-25T10:31:22;94471.97;;;26.05;32.60
23172;BME280;11754;42.664;23.594;2023-04-25T10:33:48;94461.50;;;27.22;31.39
23172;BME280;11754;42.664;23.594;2023-04-25T10:36:17;94459.66;;;28.65;29.79
23172;BME280;11754;42.664;23.594;2023-04-25T10:38:44;94461.28;;;31.42;27.00
23172;BME280;11754;42.664;23.594;2023-04-25T10:41:11;94453.00;;;31.94;24.71
23172;BME280;11754;42.664;23.594;2023-04-25T10:43:44;94444.66;;;30.43;26.05
23172;BME280;11754;42.664;23.594;2023-04-25T10:46:17;94443.16;;;29.34;26.78
23172;BME280;11754;42.664;23.594;2023-04-25T10:48:49;94453.44;;;28.65;27.52
23172;BME280;11754;42.664;23.594;2023-04-25T10:51:23;94460.91;;;28.32;28.36
23172;BME280;11754;42.664;23.594;2023-04-25T10:56:21;94482.88;;;27.89;29.32
23172;BME280;11754;42.664;23.594;2023-04-25T10:58:47;94487.66;;;27.45;30.14
23172;BME280;11754;42.664;23.594;2023-04-25T11:01:13;94495.34;;;26.81;31.61
23172;BME280;11754;42.664;23.594;2023-04-25T11:03:43;94500.75;;;26.39;33.57
23172;BME280;11754;42.664;23.594;2023-04-25T11:06:22;94509.03;;;27.28;33.39
23172;BME280;11754;42.664;23.594;2023-04-25T11:08:49;94496.16;;;31.05;27.83
23172;BME280;11754;42.664;23.594;2023-04-25T11:11:17;94493.09;;;32.78;24.36
23172;BME280;11754;42.664;23.594;2023-04-25T11:13:43;94482.88;;;31.64;24.44
23172;BME280;11754;42.664;23.594;2023-04-25T11:16:08;94475.50;;;30.29;25.20
23172;BME280;11754;42.664;23.594;2023-04-25T11:18:34;94470.44;;;29.29;26.42
23172;BME280;11754;42.664;23.594;2023-04-25T11:20:59;94463.69;;;28.26;28.18
23172;BME280;11754;42.664;23.594;2023-04-25T11:23:25;94461.66;;;27.44;29.06
23172;BME280;11754;42.664;23.594;2023-04-25T11:25:52;94452.81;;;26.87;29.54
23172;BME280;11754;42.664;23.594;2023-04-25T11:28:21;94457.00;;;26.36;30.72
23172;BME280;11754;42.664;23.594;2023-04-25T11:30:50;94459.56;;;29.07;27.98
23172;BME280;11754;42.664;23.594;2023-04-25T11:33:16;94456.16;;;31.05;25.15
23172;BME280;11754;42.664;23.594;2023-04-25T11:35:41;94442.69;;;32.46;22.82
23172;BME280;11754;42.664;23.594;2023-04-25T11:38:07;94436.88;;;33.40;22.52
23172;BME280;11754;42.664;23.594;2023-04-25T11:40:32;94423.81;;;37.39;18.88
23172;BME280;11754;42.664;23.594;2023-04-25T11:43:00;94417.63;;;41.08;16.37
23172;BME280;11754;42.664;23.594;2023-04-25T11:45:26;94418.44;;;42.56;14.35
23172;BME280;11754;42.664;23.594;2023-04-25T11:47:51;94408.09;;;41.96;14.50
23172;BME280;11754;42.664;23.594;2023-04-25T11:50:17;94404.00;;;40.26;15.26
23172;BME280;11754;42.664;23.594;2023-04-25T11:52:47;94415.41;;;38.36;16.90
23172;BME280;11754;42.664;23.594;2023-04-25T11:57:40;94433.56;;;32.34;20.12
23172;BME280;11754;42.664;23.594;2023-04-25T12:00:11;94426.44;;;30.52;22.62
23172;BME280;11754;42.664;23.594;2023-04-25T12:02:37;94425.19;;;29.02;24.91
23172;BME280;11754;42.664;23.594;2023-04-25T12:05:09;94427.84;;;27.28;27.34
23172;BME280;11754;42.664;23.594;2023-04-25T12:07:35;94426.59;;;25.25;29.84
23172;BME280;11754;42.664;23.594;2023-04-25T12:10:20;94430.63;;;23.63;33.09
23172;BME280;11754;42.664;23.594;2023-04-25T12:12:47;94435.94;;;22.20;35.43
23172;BME280;11754;42.664;23.594;2023-04-25T12:15:25;94436.47;;;21.27;37.15
23172;BME280;11754;42.664;23.594;2023-04-25T12:17:53;94437.19;;;20.80;38.87
23172;BME280;11754;42.664;23.594;2023-04-25T12:20:31;94429.94;;;20.00;41.76
23172;BME280;11754;42.664;23.594;2023-04-25T12:22:57;94433.97;;;19.58;43.00
23172;BME280;11754;42.664;23.594;2023-04-25T12:25:41;94450.09;;;19.08;45.07
23172;BME280;11754;42.664;23.594;2023-04-25T12:28:20;94448.25;;;18.63;nan
23172;BME280;11754;42.664;23.594;2023-04-25T12:30:58;94453.53;;;18.29;53.06
23172;BME280;11754;42.664;23.594;2023-04-25T12:33:25;94455.28;;;17.83;56.27
23172;BME280;11754;42.664;23.594;2023-04-25T12:35:52;94442.31;;;17.75;57.48
23172;BME280;11754;42.664;23.594;2023-04-25T12:38:22;94442.22;;;17.82;55.99
23172;BME280;11754;42.664;23.594;2023-04-25T12:40:47;94422.84;;;19.11;59.80
23172;BME280;11754;42.664;23.594;2023-04-25T12:43:13;94395.97;;;24.66;40.99
23172;BME280;11754;42.664;23.594;2023-04-25T12:45:38;94401.50;;;30.01;30.75
23172;BME280;11754;42.664;23.594;2023-04-25T12:48:04;94401.00;;;31.99;26.15
23172;BME280;11754;42.664;23.594;2023-04-25T12:50:29;94401.47;;;35.28;23.34
23172;BME280;11754;42.664;23.594;2023-04-25T12:52:55;94403.44;;;35.43;21.71
23172;BME280;11754;42.664;23.594;2023-04-25T12:55:20;94415.22;;;31.66;24.36
23172;BME280;11754;42.664;23.594;2023-04-25T12:57:45;94422.03;;;29.76;27.69
23172;BME280;11754;42.664;23.594;2023-04-25T13:00:11;94428.72;;;27.70;30.21
23172;BME280;11754;42.664;23.594;2023-04-25T13:02:39;94425.81;;;26.82;31.50
23172;BME280;11754;42.664;23.594;2023-04-25T13:05:05;94454.59;;;25.87;33.27
23172;BME280;11754;42.664;23.594;2023-04-25T13:07:30;94469.28;;;25.17;36.20
23172;BME280;11754;42.664;23.594;2023-04-25T13:09:56;94463.94;;;23.98;38.17
23172;BME280;11754;42.664;23.594;2023-04-25T13:12:21;94466.75;;;23.01;40.08
23172;BME280;11754;42.664;23.594;2023-04-25T13:14:46;94466.31;;;22.26;41.56
23172;BME280;11754;42.664;23.594;2023-04-25T13:17:12;94473.13;;;21.49;43.62
23172;BME280;11754;42.664;23.594;2023-04-25T13:19:37;94468.56;;;21.12;44.78
23172;BME280;11754;42.664;23.594;2023-04-25T13:22:04;94469.41;;;20.85;45.73
23172;BME280;11754;42.664;23.594;2023-04-25T13:24:29;94473.97;;;20.58;46.18
23172;BME280;11754;42.664;23.594;2023-04-25T13:26:55;94459.94;;;20.24;45.87
23172;BME280;11754;42.664;23.594;2023-04-25T13:29:20;94456.69;;;20.00;46.42
23172;BME280;11754;42.664;23.594;2023-04-25T13:31:45;94466.41;;;19.84;48.03
23172;BME280;11754;42.664;23.594;2023-04-25T13:34:11;94457.56;;;19.83;49.13
23172;BME280;11754;42.664;23.594;2023-04-25T13:36:37;94447.91;;;19.82;49.22
23172;BME280;11754;42.664;23.594;2023-04-25T13:39:03;94447.69;;;19.84;48.93
23172;BME280;11754;42.664;23.594;2023-04-25T13:41:29;94465.03;;;19.81;49.21
23172;BME280;11754;42.664;23.594;2023-04-25T13:43:55;94474.38;;;19.23;48.95
23172;BME280;11754;42.664;23.594;2023-04-25T13:46:20;94466.53;;;18.54;51.39
23172;BME280;11754;42.664;23.594;2023-04-25T13:48:46;94468.75;;;17.65;54.03
23172;BME280;11754;42.664;23.594;2023-04-25T13:51:14;94483.59;;;17.02;58.76
23172;BME280;11754;42.664;23.594;2023-04-25T13:53:40;94481.22;;;16.70;59.63
23172;BME280;11754;42.664;23.594;2023-04-25T13:56:06;94482.44;;;16.26;60.72
23172;BME280;11754;42.664;23.594;2023-04-25T13:58:31;94474.41;;;15.84;60.68
23172;BME280;11754;42.664;23.594;2023-04-25T14:00:58;94466.47;;;15.59;61.44
23172;BME280;11754;42.664;23.594;2023-04-25T14:03:23;94478.66;;;15.48;62.71
23172;BME280;11754;42.664;23.594;2023-04-25T14:05:49;94473.38;;;15.23;63.16
23172;BME280;11754;42.664;23.594;2023-04-25T14:08:14;94470.78;;;15.17;65.30
23172;BME280;11754;42.664;23.594;2023-04-25T14:10:39;94476.06;;;14.98;66.32
23172;BME280;11754;42.664;23.594;2023-04-25T14:13:05;94478.84;;;14.53;67.93
23172;BME280;11754;42.664;23.594;2023-04-25T14:15:32;94488.09;;;13.99;70.96
23172;BME280;11754;42.664;23.594;2023-04-25T14:17:58;94484.00;;;13.58;73.40
23172;BME280;11754;42.664;23.594;2023-04-25T14:20:23;94485.69;;;13.33;75.81
23172;BME280;11754;42.664;23.594;2023-04-25T14:22:49;94490.41;;;13.24;77.36
23172;BME280;11754;42.664;23.594;2023-04-25T14:25:15;94478.56;;;13.13;77.77
23172;BME280;11754;42.664;23.594;2023-04-25T14:27:40;94464.31;;;13.14;79.09
23172;BME280;11754;42.664;23.594;2023-04-25T14:30:06;94452.88;;;13.40;78.22
23172;BME280;11754;42.664;23.594;2023-04-25T14:32:32;94468.34;;;13.95;76.70
23172;BME280;11754;42.664;23.594;2023-04-25T14:34:57;94461.22;;;14.65;74.88
23172;BME280;11754;42.664;23.594;2023-04-25T14:37:22;94470.69;;;15.05;73.54
23172;BME280;11754;42.664;23.594;2023-04-25T14:39:48;94469.75;;;15.18;72.08
23172;BME280;11754;42.664;23.594;2023-04-25T14:42:13;94460.59;;;15.13;72.27
23172;BME280;11754;42.664;23.594;2023-04-25T14:44:39;94470.56;;;15.18;71.42
23172;BME280;11754;42.664;23.594;2023-04-25T14:47:04;94466.50;;;15.16;69.74